Malacca Airport
WMKM : now visible

Airfield :











YOU CAN JOIN US ON...

 
LOGIN :

Register | Disclaimer

   EN    FR    IT 

 









Legend :    VFR   Marginal VFR   IFR   Intensive IFR   Very Intensive IFR
Visi :
Ceiling :
>= 8 km
>= 3000ft
5 to 8 km
1000 to 3000 ft
1500m to 5 km
500 to 1000 ft
800 to 1500m
200 to 500 ft
< 800m
< 200 ft
Symbols :   Thunderstorms  Fog  Heavy snow  Heavy precipitations  Wind > 20 kt






- Airport Elevation : 35 ft
- IATA code : MKZ


WMKM - Malacca

CURRENT METAR :
  • 250700Z VRB06KT 9999 FEW020 30/24 Q1008

EXPIRED METARs :
  • 250600Z 04007G22KT 320V130 9999 FEW020 30/24 Q1009
  • 250500Z VRB07KT 9999 FEW020 30/24 Q1010

TAF TAF WMKM
Valid from the 25 at 06:00 until the 26 at 06:00 UTC


250416Z 2506/2606 VRB03KT 9999 FEW020
TEMPO 2506/2510 30008G18KT 4000 TSRA FEW016CB SCT020
WMFC FIR / Asia



MET'MAP, your aeronautical weather chart ! - Copyright ORBIFLY December 2007 - Disclaimer

ORBIFLY MET'MAP TEAM :

Programming & Development : Alexandra Zaïnal
Concept & original design : Baudouin d'Aumeries
Assistance for programming : Marc-Olivier Méhu
Technical & hardware support : Manuel Goepfert

Contact : metmap@orbifly.com




SOURCES & CREDITS :

   NOAA       Earth
Advisory